sensor_id;sensor_type;location;lat;lon;timestamp;P1;durP1;ratioP1;P2;durP2;ratioP2
974;SDS011;6115;49.296;10.602;2023-05-10T00:03:28;5.57;;;3.70;;
974;SDS011;6115;49.296;10.602;2023-05-10T00:08:28;4.70;;;4.10;;
974;SDS011;6115;49.296;10.602;2023-05-10T00:13:29;4.40;;;4.00;;
974;SDS011;6115;49.296;10.602;2023-05-10T00:18:29;4.00;;;3.60;;
974;SDS011;6115;49.296;10.602;2023-05-10T00:23:30;4.10;;;3.70;;
974;SDS011;6115;49.296;10.602;2023-05-10T00:28:30;4.03;;;3.50;;
974;SDS011;6115;49.296;10.602;2023-05-10T00:33:31;4.27;;;3.20;;
974;SDS011;6115;49.296;10.602;2023-05-10T00:38:32;3.83;;;3.43;;
974;SDS011;6115;49.296;10.602;2023-05-10T00:43:32;4.20;;;3.80;;
974;SDS011;6115;49.296;10.602;2023-05-10T00:48:33;4.23;;;3.83;;
974;SDS011;6115;49.296;10.602;2023-05-10T00:53:34;3.70;;;3.37;;
974;SDS011;6115;49.296;10.602;2023-05-10T00:58:35;4.13;;;3.60;;
974;SDS011;6115;49.296;10.602;2023-05-10T01:03:35;4.60;;;3.20;;
974;SDS011;6115;49.296;10.602;2023-05-10T01:08:37;3.50;;;3.20;;
974;SDS011;6115;49.296;10.602;2023-05-10T01:13:38;3.13;;;2.83;;
974;SDS011;6115;49.296;10.602;2023-05-10T01:18:40;4.40;;;2.73;;
974;SDS011;6115;49.296;10.602;2023-05-10T01:23:48;3.07;;;2.60;;
974;SDS011;6115;49.296;10.602;2023-05-10T01:34:27;3.20;;;2.40;;
974;SDS011;6115;49.296;10.602;2023-05-10T01:39:47;4.70;;;2.60;;
974;SDS011;6115;49.296;10.602;2023-05-10T01:45:00;4.33;;;3.10;;
974;SDS011;6115;49.296;10.602;2023-05-10T01:50:09;3.43;;;3.13;;
974;SDS011;6115;49.296;10.602;2023-05-10T01:55:17;2.77;;;2.40;;
974;SDS011;6115;49.296;10.602;2023-05-10T02:00:20;1.20;;;1.00;;
974;SDS011;6115;49.296;10.602;2023-05-10T02:05:21;2.57;;;1.10;;
974;SDS011;6115;49.296;10.602;2023-05-10T02:10:22;1.93;;;1.23;;
974;SDS011;6115;49.296;10.602;2023-05-10T02:15:23;1.90;;;1.40;;
974;SDS011;6115;49.296;10.602;2023-05-10T02:20:26;2.13;;;1.60;;
974;SDS011;6115;49.296;10.602;2023-05-10T02:25:27;2.90;;;1.40;;
974;SDS011;6115;49.296;10.602;2023-05-10T02:30:29;2.77;;;1.30;;
974;SDS011;6115;49.296;10.602;2023-05-10T02:35:32;2.60;;;1.13;;
974;SDS011;6115;49.296;10.602;2023-05-10T02:40:34;1.93;;;1.13;;
974;SDS011;6115;49.296;10.602;2023-05-10T02:45:36;1.23;;;0.90;;
974;SDS011;6115;49.296;10.602;2023-05-10T02:50:38;1.80;;;1.10;;
974;SDS011;6115;49.296;10.602;2023-05-10T02:55:44;1.00;;;0.70;;
974;SDS011;6115;49.296;10.602;2023-05-10T03:00:48;1.73;;;0.87;;
974;SDS011;6115;49.296;10.602;2023-05-10T03:05:49;1.03;;;0.73;;
974;SDS011;6115;49.296;10.602;2023-05-10T03:11:00;1.00;;;0.70;;
974;SDS011;6115;49.296;10.602;2023-05-10T03:16:06;1.30;;;1.00;;
974;SDS011;6115;49.296;10.602;2023-05-10T03:21:15;1.10;;;0.70;;
974;SDS011;6115;49.296;10.602;2023-05-10T03:26:20;1.60;;;0.90;;
974;SDS011;6115;49.296;10.602;2023-05-10T03:31:25;1.10;;;0.83;;
974;SDS011;6115;49.296;10.602;2023-05-10T03:36:26;2.27;;;0.90;;
974;SDS011;6115;49.296;10.602;2023-05-10T03:41:27;1.20;;;1.00;;
974;SDS011;6115;49.296;10.602;2023-05-10T03:46:28;1.30;;;1.03;;
974;SDS011;6115;49.296;10.602;2023-05-10T03:51:28;1.10;;;0.80;;
974;SDS011;6115;49.296;10.602;2023-05-10T03:56:31;1.90;;;1.30;;
974;SDS011;6115;49.296;10.602;2023-05-10T04:01:31;1.00;;;0.80;;
974;SDS011;6115;49.296;10.602;2023-05-10T04:06:32;1.20;;;1.00;;
974;SDS011;6115;49.296;10.602;2023-05-10T04:11:32;1.40;;;0.90;;
974;SDS011;6115;49.296;10.602;2023-05-10T04:16:33;2.50;;;1.37;;
974;SDS011;6115;49.296;10.602;2023-05-10T04:21:34;1.57;;;1.37;;
974;SDS011;6115;49.296;10.602;2023-05-10T04:26:34;1.60;;;1.40;;
974;SDS011;6115;49.296;10.602;2023-05-10T04:31:35;1.37;;;1.27;;
974;SDS011;6115;49.296;10.602;2023-05-10T04:36:36;2.40;;;1.50;;
974;SDS011;6115;49.296;10.602;2023-05-10T04:41:37;5.37;;;1.60;;
974;SDS011;6115;49.296;10.602;2023-05-10T04:46:38;2.07;;;1.80;;
974;SDS011;6115;49.296;10.602;2023-05-10T04:51:38;3.20;;;2.20;;
974;SDS011;6115;49.296;10.602;2023-05-10T04:56:39;2.60;;;2.30;;
974;SDS011;6115;49.296;10.602;2023-05-10T05:01:40;2.60;;;2.40;;
974;SDS011;6115;49.296;10.602;2023-05-10T05:06:41;4.00;;;2.60;;
974;SDS011;6115;49.296;10.602;2023-05-10T05:11:41;4.90;;;2.50;;
974;SDS011;6115;49.296;10.602;2023-05-10T05:16:42;3.90;;;3.10;;
974;SDS011;6115;49.296;10.602;2023-05-10T05:21:42;3.77;;;3.27;;
974;SDS011;6115;49.296;10.602;2023-05-10T05:26:43;3.80;;;3.20;;
974;SDS011;6115;49.296;10.602;2023-05-10T05:31:44;9.70;;;3.40;;
974;SDS011;6115;49.296;10.602;2023-05-10T05:36:44;4.80;;;4.40;;
974;SDS011;6115;49.296;10.602;2023-05-10T05:41:45;5.33;;;4.83;;
974;SDS011;6115;49.296;10.602;2023-05-10T05:46:46;5.97;;;4.20;;
974;SDS011;6115;49.296;10.602;2023-05-10T05:51:47;4.03;;;3.63;;
974;SDS011;6115;49.296;10.602;2023-05-10T05:56:49;3.83;;;3.53;;
974;SDS011;6115;49.296;10.602;2023-05-10T06:01:50;3.83;;;3.40;;
974;SDS011;6115;49.296;10.602;2023-05-10T06:06:56;4.10;;;3.80;;
974;SDS011;6115;49.296;10.602;2023-05-10T06:11:56;3.30;;;3.00;;
974;SDS011;6115;49.296;10.602;2023-05-10T06:16:57;3.43;;;3.00;;
974;SDS011;6115;49.296;10.602;2023-05-10T06:21:59;3.47;;;3.17;;
974;SDS011;6115;49.296;10.602;2023-05-10T06:27:00;4.03;;;3.63;;
974;SDS011;6115;49.296;10.602;2023-05-10T06:32:00;3.60;;;3.30;;
974;SDS011;6115;49.296;10.602;2023-05-10T06:37:01;3.77;;;3.47;;
974;SDS011;6115;49.296;10.602;2023-05-10T06:42:03;4.10;;;3.80;;
974;SDS011;6115;49.296;10.602;2023-05-10T06:47:04;3.60;;;3.30;;
974;SDS011;6115;49.296;10.602;2023-05-10T06:52:05;4.33;;;3.30;;
974;SDS011;6115;49.296;10.602;2023-05-10T06:57:05;3.93;;;3.40;;
974;SDS011;6115;49.296;10.602;2023-05-10T07:02:06;4.80;;;4.30;;
974;SDS011;6115;49.296;10.602;2023-05-10T07:07:07;4.40;;;4.00;;
974;SDS011;6115;49.296;10.602;2023-05-10T07:12:08;3.97;;;3.67;;
974;SDS011;6115;49.296;10.602;2023-05-10T07:17:08;6.20;;;3.60;;
974;SDS011;6115;49.296;10.602;2023-05-10T07:22:09;4.07;;;3.70;;
974;SDS011;6115;49.296;10.602;2023-05-10T07:27:10;3.93;;;3.63;;
974;SDS011;6115;49.296;10.602;2023-05-10T07:32:10;3.80;;;3.50;;
974;SDS011;6115;49.296;10.602;2023-05-10T07:37:11;3.40;;;3.10;;
974;SDS011;6115;49.296;10.602;2023-05-10T07:42:12;5.53;;;2.90;;
974;SDS011;6115;49.296;10.602;2023-05-10T07:47:12;2.63;;;2.43;;
974;SDS011;6115;49.296;10.602;2023-05-10T07:52:13;2.70;;;2.50;;
974;SDS011;6115;49.296;10.602;2023-05-10T07:57:13;3.50;;;2.67;;
974;SDS011;6115;49.296;10.602;2023-05-10T08:02:15;2.50;;;2.30;;
974;SDS011;6115;49.296;10.602;2023-05-10T08:07:15;5.00;;;3.10;;
974;SDS011;6115;49.296;10.602;2023-05-10T08:12:16;2.53;;;2.33;;
974;SDS011;6115;49.296;10.602;2023-05-10T08:17:17;2.80;;;2.40;;
974;SDS011;6115;49.296;10.602;2023-05-10T08:22:17;3.50;;;1.83;;
974;SDS011;6115;49.296;10.602;2023-05-10T08:27:18;2.93;;;1.80;;
974;SDS011;6115;49.296;10.602;2023-05-10T08:32:18;3.23;;;1.87;;
974;SDS011;6115;49.296;10.602;2023-05-10T08:37:19;5.43;;;2.07;;
974;SDS011;6115;49.296;10.602;2023-05-10T08:42:20;4.13;;;2.17;;
974;SDS011;6115;49.296;10.602;2023-05-10T08:47:26;2.37;;;1.87;;
974;SDS011;6115;49.296;10.602;2023-05-10T08:52:27;2.20;;;1.77;;
974;SDS011;6115;49.296;10.602;2023-05-10T08:57:30;5.50;;;2.20;;
974;SDS011;6115;49.296;10.602;2023-05-10T09:02:30;3.30;;;2.40;;
974;SDS011;6115;49.296;10.602;2023-05-10T09:07:31;5.10;;;2.67;;
974;SDS011;6115;49.296;10.602;2023-05-10T09:12:32;3.70;;;2.60;;
974;SDS011;6115;49.296;10.602;2023-05-10T09:17:33;3.00;;;2.60;;
974;SDS011;6115;49.296;10.602;2023-05-10T09:22:34;3.00;;;2.73;;
974;SDS011;6115;49.296;10.602;2023-05-10T09:27:35;3.33;;;3.00;;
974;SDS011;6115;49.296;10.602;2023-05-10T09:32:40;8.83;;;2.63;;
974;SDS011;6115;49.296;10.602;2023-05-10T09:37:45;3.70;;;3.33;;
974;SDS011;6115;49.296;10.602;2023-05-10T09:42:57;3.93;;;3.53;;
974;SDS011;6115;49.296;10.602;2023-05-10T09:48:01;2.63;;;2.10;;
974;SDS011;6115;49.296;10.602;2023-05-10T09:53:03;2.27;;;2.07;;
974;SDS011;6115;49.296;10.602;2023-05-10T09:58:06;1.70;;;1.60;;
974;SDS011;6115;49.296;10.602;2023-05-10T10:03:14;2.60;;;1.63;;
974;SDS011;6115;49.296;10.602;2023-05-10T10:08:15;2.53;;;1.60;;
974;SDS011;6115;49.296;10.602;2023-05-10T10:13:20;2.30;;;2.10;;
974;SDS011;6115;49.296;10.602;2023-05-10T10:18:21;2.50;;;2.30;;
974;SDS011;6115;49.296;10.602;2023-05-10T10:23:27;3.77;;;2.10;;
974;SDS011;6115;49.296;10.602;2023-05-10T10:34:09;2.10;;;1.80;;
974;SDS011;6115;49.296;10.602;2023-05-10T10:39:13;3.00;;;1.97;;
974;SDS011;6115;49.296;10.602;2023-05-10T11:00:38;2.97;;;2.37;;
974;SDS011;6115;49.296;10.602;2023-05-10T11:05:33;3.93;;;2.83;;
974;SDS011;6115;49.296;10.602;2023-05-10T11:10:35;3.30;;;3.00;;
974;SDS011;6115;49.296;10.602;2023-05-10T11:15:37;3.17;;;2.73;;
974;SDS011;6115;49.296;10.602;2023-05-10T11:20:39;3.63;;;3.33;;
974;SDS011;6115;49.296;10.602;2023-05-10T11:25:43;3.57;;;3.27;;
974;SDS011;6115;49.296;10.602;2023-05-10T11:30:44;4.27;;;3.37;;
974;SDS011;6115;49.296;10.602;2023-05-10T11:35:45;3.80;;;3.40;;
974;SDS011;6115;49.296;10.602;2023-05-10T11:40:46;3.67;;;3.30;;
974;SDS011;6115;49.296;10.602;2023-05-10T11:45:51;3.20;;;3.00;;
974;SDS011;6115;49.296;10.602;2023-05-10T11:50:51;4.30;;;3.00;;
974;SDS011;6115;49.296;10.602;2023-05-10T11:55:55;4.57;;;2.40;;
974;SDS011;6115;49.296;10.602;2023-05-10T12:01:02;3.00;;;2.50;;
974;SDS011;6115;49.296;10.602;2023-05-10T12:06:03;3.57;;;2.07;;
974;SDS011;6115;49.296;10.602;2023-05-10T12:11:05;3.30;;;2.30;;
974;SDS011;6115;49.296;10.602;2023-05-10T12:16:14;2.00;;;1.60;;
974;SDS011;6115;49.296;10.602;2023-05-10T12:21:25;2.20;;;1.83;;
974;SDS011;6115;49.296;10.602;2023-05-10T12:26:27;1.77;;;1.63;;
974;SDS011;6115;49.296;10.602;2023-05-10T12:31:29;2.50;;;1.97;;
974;SDS011;6115;49.296;10.602;2023-05-10T12:36:29;2.27;;;2.07;;
974;SDS011;6115;49.296;10.602;2023-05-10T12:41:31;2.40;;;2.10;;
974;SDS011;6115;49.296;10.602;2023-05-10T12:46:31;5.27;;;2.70;;
974;SDS011;6115;49.296;10.602;2023-05-10T12:51:32;3.27;;;2.47;;
974;SDS011;6115;49.296;10.602;2023-05-10T12:56:32;3.03;;;2.50;;
974;SDS011;6115;49.296;10.602;2023-05-10T13:01:34;4.07;;;2.80;;
974;SDS011;6115;49.296;10.602;2023-05-10T13:06:35;2.90;;;2.70;;
974;SDS011;6115;49.296;10.602;2023-05-10T13:11:35;3.00;;;2.47;;
974;SDS011;6115;49.296;10.602;2023-05-10T13:16:36;2.33;;;2.13;;
974;SDS011;6115;49.296;10.602;2023-05-10T13:21:37;1.80;;;1.60;;
974;SDS011;6115;49.296;10.602;2023-05-10T13:26:37;1.40;;;1.30;;
974;SDS011;6115;49.296;10.602;2023-05-10T13:31:38;1.73;;;1.47;;
974;SDS011;6115;49.296;10.602;2023-05-10T13:36:38;1.50;;;1.30;;
974;SDS011;6115;49.296;10.602;2023-05-10T13:41:39;1.70;;;1.60;;
974;SDS011;6115;49.296;10.602;2023-05-10T13:46:42;2.30;;;1.57;;
974;SDS011;6115;49.296;10.602;2023-05-10T13:51:43;2.40;;;1.60;;
974;SDS011;6115;49.296;10.602;2023-05-10T13:56:44;1.57;;;1.47;;
974;SDS011;6115;49.296;10.602;2023-05-10T14:01:45;1.43;;;1.33;;
974;SDS011;6115;49.296;10.602;2023-05-10T14:06:45;1.53;;;1.43;;
974;SDS011;6115;49.296;10.602;2023-05-10T14:11:46;1.70;;;1.40;;
974;SDS011;6115;49.296;10.602;2023-05-10T14:16:46;2.07;;;1.57;;
974;SDS011;6115;49.296;10.602;2023-05-10T14:21:47;3.53;;;1.80;;
974;SDS011;6115;49.296;10.602;2023-05-10T14:26:48;2.17;;;1.97;;
974;SDS011;6115;49.296;10.602;2023-05-10T14:31:48;2.90;;;1.93;;
974;SDS011;6115;49.296;10.602;2023-05-10T14:36:49;3.17;;;1.50;;
974;SDS011;6115;49.296;10.602;2023-05-10T14:41:50;2.63;;;1.80;;
974;SDS011;6115;49.296;10.602;2023-05-10T14:46:52;2.90;;;1.70;;
974;SDS011;6115;49.296;10.602;2023-05-10T14:51:52;1.57;;;1.40;;
974;SDS011;6115;49.296;10.602;2023-05-10T14:56:53;3.87;;;1.90;;
974;SDS011;6115;49.296;10.602;2023-05-10T15:01:53;2.40;;;1.90;;
974;SDS011;6115;49.296;10.602;2023-05-10T15:06:54;2.37;;;2.00;;
974;SDS011;6115;49.296;10.602;2023-05-10T15:11:58;2.43;;;1.77;;
974;SDS011;6115;49.296;10.602;2023-05-10T15:16:59;2.50;;;2.30;;
974;SDS011;6115;49.296;10.602;2023-05-10T15:22:00;2.00;;;1.80;;
974;SDS011;6115;49.296;10.602;2023-05-10T15:27:00;1.90;;;1.50;;
974;SDS011;6115;49.296;10.602;2023-05-10T15:32:01;2.80;;;1.80;;
974;SDS011;6115;49.296;10.602;2023-05-10T15:37:02;2.43;;;1.70;;
974;SDS011;6115;49.296;10.602;2023-05-10T15:42:03;1.50;;;1.40;;
974;SDS011;6115;49.296;10.602;2023-05-10T15:47:04;2.23;;;2.03;;
974;SDS011;6115;49.296;10.602;2023-05-10T15:52:05;2.13;;;1.93;;
974;SDS011;6115;49.296;10.602;2023-05-10T15:57:05;1.97;;;1.77;;
974;SDS011;6115;49.296;10.602;2023-05-10T16:02:07;7.40;;;2.00;;
974;SDS011;6115;49.296;10.602;2023-05-10T16:07:10;3.00;;;2.23;;
974;SDS011;6115;49.296;10.602;2023-05-10T16:12:10;3.03;;;2.30;;
974;SDS011;6115;49.296;10.602;2023-05-10T16:17:11;2.67;;;2.17;;
974;SDS011;6115;49.296;10.602;2023-05-10T16:22:13;2.50;;;2.30;;
974;SDS011;6115;49.296;10.602;2023-05-10T16:27:14;2.80;;;2.60;;
974;SDS011;6115;49.296;10.602;2023-05-10T16:32:15;3.03;;;2.70;;
974;SDS011;6115;49.296;10.602;2023-05-10T16:37:16;3.23;;;2.40;;
974;SDS011;6115;49.296;10.602;2023-05-10T16:42:16;2.77;;;2.53;;
974;SDS011;6115;49.296;10.602;2023-05-10T16:47:17;2.73;;;2.53;;
974;SDS011;6115;49.296;10.602;2023-05-10T16:52:17;2.47;;;2.27;;
974;SDS011;6115;49.296;10.602;2023-05-10T16:57:18;3.00;;;2.53;;
974;SDS011;6115;49.296;10.602;2023-05-10T17:02:22;3.93;;;2.40;;
974;SDS011;6115;49.296;10.602;2023-05-10T17:07:22;3.00;;;2.50;;
974;SDS011;6115;49.296;10.602;2023-05-10T17:12:23;3.23;;;2.50;;
974;SDS011;6115;49.296;10.602;2023-05-10T17:17:24;3.73;;;2.57;;
974;SDS011;6115;49.296;10.602;2023-05-10T17:22:25;3.37;;;2.20;;
974;SDS011;6115;49.296;10.602;2023-05-10T17:27:25;2.40;;;2.20;;
974;SDS011;6115;49.296;10.602;2023-05-10T17:32:27;3.80;;;2.90;;
974;SDS011;6115;49.296;10.602;2023-05-10T17:37:28;2.33;;;2.13;;
974;SDS011;6115;49.296;10.602;2023-05-10T17:42:29;3.07;;;1.97;;
974;SDS011;6115;49.296;10.602;2023-05-10T17:47:29;7.50;;;2.43;;
974;SDS011;6115;49.296;10.602;2023-05-10T17:52:30;2.80;;;1.97;;
974;SDS011;6115;49.296;10.602;2023-05-10T17:57:31;4.10;;;2.40;;
974;SDS011;6115;49.296;10.602;2023-05-10T18:02:32;2.80;;;2.13;;
974;SDS011;6115;49.296;10.602;2023-05-10T18:07:34;5.13;;;2.33;;
974;SDS011;6115;49.296;10.602;2023-05-10T18:12:35;3.33;;;2.50;;
974;SDS011;6115;49.296;10.602;2023-05-10T18:17:35;4.47;;;2.30;;
974;SDS011;6115;49.296;10.602;2023-05-10T18:22:36;2.60;;;2.10;;
974;SDS011;6115;49.296;10.602;2023-05-10T18:27:37;2.70;;;2.50;;
974;SDS011;6115;49.296;10.602;2023-05-10T18:32:37;4.47;;;3.03;;
974;SDS011;6115;49.296;10.602;2023-05-10T18:37:38;3.87;;;2.80;;
974;SDS011;6115;49.296;10.602;2023-05-10T18:42:39;5.70;;;2.60;;
974;SDS011;6115;49.296;10.602;2023-05-10T18:47:40;2.77;;;2.50;;
974;SDS011;6115;49.296;10.602;2023-05-10T18:52:41;5.30;;;2.93;;
974;SDS011;6115;49.296;10.602;2023-05-10T18:57:42;2.93;;;2.63;;
974;SDS011;6115;49.296;10.602;2023-05-10T19:02:44;4.47;;;2.77;;
974;SDS011;6115;49.296;10.602;2023-05-10T19:07:44;2.30;;;2.00;;
974;SDS011;6115;49.296;10.602;2023-05-10T19:12:45;2.80;;;2.23;;
974;SDS011;6115;49.296;10.602;2023-05-10T19:17:45;2.53;;;2.33;;
974;SDS011;6115;49.296;10.602;2023-05-10T19:22:46;3.30;;;2.40;;
974;SDS011;6115;49.296;10.602;2023-05-10T19:27:46;3.97;;;2.20;;
974;SDS011;6115;49.296;10.602;2023-05-10T19:32:47;3.90;;;2.40;;
974;SDS011;6115;49.296;10.602;2023-05-10T19:37:47;4.57;;;2.03;;
974;SDS011;6115;49.296;10.602;2023-05-10T19:42:48;2.60;;;2.30;;
974;SDS011;6115;49.296;10.602;2023-05-10T19:47:49;2.87;;;2.30;;
974;SDS011;6115;49.296;10.602;2023-05-10T19:52:49;3.50;;;2.70;;
974;SDS011;6115;49.296;10.602;2023-05-10T19:57:50;4.00;;;2.10;;
974;SDS011;6115;49.296;10.602;2023-05-10T20:02:51;4.63;;;2.80;;
974;SDS011;6115;49.296;10.602;2023-05-10T20:07:52;5.80;;;2.30;;
974;SDS011;6115;49.296;10.602;2023-05-10T20:12:53;4.57;;;2.50;;
974;SDS011;6115;49.296;10.602;2023-05-10T20:17:54;4.43;;;3.20;;
974;SDS011;6115;49.296;10.602;2023-05-10T20:22:54;6.97;;;3.10;;
974;SDS011;6115;49.296;10.602;2023-05-10T20:27:55;3.40;;;3.10;;
974;SDS011;6115;49.296;10.602;2023-05-10T20:32:55;4.07;;;3.47;;
974;SDS011;6115;49.296;10.602;2023-05-10T20:37:56;3.93;;;3.10;;
974;SDS011;6115;49.296;10.602;2023-05-10T20:42:58;6.00;;;2.90;;
974;SDS011;6115;49.296;10.602;2023-05-10T20:47:59;5.33;;;2.50;;
974;SDS011;6115;49.296;10.602;2023-05-10T20:53:00;4.07;;;2.93;;
974;SDS011;6115;49.296;10.602;2023-05-10T20:58:00;4.50;;;3.50;;
974;SDS011;6115;49.296;10.602;2023-05-10T21:03:01;9.60;;;3.00;;
974;SDS011;6115;49.296;10.602;2023-05-10T21:08:01;4.23;;;3.00;;
974;SDS011;6115;49.296;10.602;2023-05-10T21:13:02;4.20;;;2.83;;
974;SDS011;6115;49.296;10.602;2023-05-10T21:18:02;5.80;;;2.80;;
974;SDS011;6115;49.296;10.602;2023-05-10T21:23:03;5.33;;;4.07;;
974;SDS011;6115;49.296;10.602;2023-05-10T21:28:04;3.97;;;3.50;;
974;SDS011;6115;49.296;10.602;2023-05-10T21:33:05;10.03;;;3.67;;
974;SDS011;6115;49.296;10.602;2023-05-10T21:38:05;5.20;;;3.60;;
974;SDS011;6115;49.296;10.602;2023-05-10T21:43:06;4.77;;;4.03;;
974;SDS011;6115;49.296;10.602;2023-05-10T21:48:07;4.33;;;3.30;;
974;SDS011;6115;49.296;10.602;2023-05-10T21:53:07;6.73;;;4.00;;
974;SDS011;6115;49.296;10.602;2023-05-10T21:58:08;4.63;;;3.63;;
974;SDS011;6115;49.296;10.602;2023-05-10T22:03:08;6.30;;;3.60;;
974;SDS011;6115;49.296;10.602;2023-05-10T22:08:09;6.50;;;4.57;;
974;SDS011;6115;49.296;10.602;2023-05-10T22:13:09;5.80;;;4.23;;
974;SDS011;6115;49.296;10.602;2023-05-10T22:18:10;5.30;;;4.00;;
974;SDS011;6115;49.296;10.602;2023-05-10T22:23:11;7.23;;;3.70;;
974;SDS011;6115;49.296;10.602;2023-05-10T22:28:11;6.87;;;4.20;;
974;SDS011;6115;49.296;10.602;2023-05-10T22:33:12;5.43;;;3.77;;
974;SDS011;6115;49.296;10.602;2023-05-10T22:38:12;4.73;;;3.50;;
974;SDS011;6115;49.296;10.602;2023-05-10T22:43:13;6.90;;;4.30;;
974;SDS011;6115;49.296;10.602;2023-05-10T22:48:15;3.67;;;3.37;;
974;SDS011;6115;49.296;10.602;2023-05-10T22:53:16;5.10;;;3.67;;
974;SDS011;6115;49.296;10.602;2023-05-10T22:58:16;6.00;;;3.73;;
974;SDS011;6115;49.296;10.602;2023-05-10T23:03:17;9.40;;;3.13;;
974;SDS011;6115;49.296;10.602;2023-05-10T23:08:17;4.67;;;3.50;;
974;SDS011;6115;49.296;10.602;2023-05-10T23:13:18;4.50;;;3.17;;
974;SDS011;6115;49.296;10.602;2023-05-10T23:18:20;4.13;;;3.10;;
974;SDS011;6115;49.296;10.602;2023-05-10T23:23:21;4.40;;;3.57;;
974;SDS011;6115;49.296;10.602;2023-05-10T23:28:21;3.30;;;3.00;;
974;SDS011;6115;49.296;10.602;2023-05-10T23:33:22;12.33;;;5.23;;
974;SDS011;6115;49.296;10.602;2023-05-10T23:38:23;5.03;;;2.90;;
974;SDS011;6115;49.296;10.602;2023-05-10T23:43:24;4.83;;;3.00;;
974;SDS011;6115;49.296;10.602;2023-05-10T23:48:24;3.57;;;2.60;;
974;SDS011;6115;49.296;10.602;2023-05-10T23:53:25;3.57;;;2.83;;
974;SDS011;6115;49.296;10.602;2023-05-10T23:58:25;3.13;;;2.60;;
